Time;durP1;ratioP1;P1;durP2;ratioP2;P2;SDS_P1;SDS_P2;PMS_P1;PMS_P2;Temp;Humidity;BMP_temperature;BMP_pressure;BME280_temperature;BME280_humidity;BME280_pressure;Samples;Min_cycle;Max_cycle;Signal;HPM_P1;HPM_P2
2022/06/16 00:02:16;;;;;;;2.80;0.90;;;21.00;72.10;;;;;;4962791;28;20027;-88
2022/06/16 00:04:47;;;;;;;1.90;0.80;;;21.00;72.70;;;;;;4958523;28;20023;-89
2022/06/16 00:07:15;;;;;;;1.42;0.80;;;21.00;73.30;;;;;;4954706;28;20022;-89
2022/06/16 00:09:41;;;;;;;1.63;0.75;;;20.90;73.60;;;;;;4957512;28;20054;-88
2022/06/16 00:12:09;;;;;;;2.00;0.80;;;20.80;73.60;;;;;;4966458;28;20458;-89
2022/06/16 00:14:38;;;;;;;3.83;1.02;;;20.80;73.70;;;;;;4957731;28;20034;-89
2022/06/16 00:17:04;;;;;;;1.88;0.88;;;20.80;73.90;;;;;;4956768;28;20076;-89
2022/06/16 00:19:29;;;;;;;2.20;1.02;;;20.70;74.60;;;;;;4982281;28;20026;-89
2022/06/16 00:21:55;;;;;;;2.15;0.90;;;20.70;74.40;;;;;;4975889;28;20022;-89
2022/06/16 00:24:26;;;;;;;2.75;0.77;;;20.70;74.30;;;;;;4995706;28;20027;-89
2022/06/16 00:26:52;;;;;;;1.90;0.80;;;20.70;73.70;;;;;;4964953;28;20503;-89
2022/06/16 00:29:18;;;;;;;1.42;0.70;;;20.70;73.60;;;;;;4976834;28;20027;-88
2022/06/16 00:31:43;;;;;;;1.80;0.70;;;20.70;73.10;;;;;;4956579;28;20496;-89
2022/06/16 00:34:09;;;;;;;3.60;0.90;;;20.70;73.40;;;;;;4955032;28;20391;-89
2022/06/16 00:36:37;;;;;;;2.20;0.85;;;20.70;73.30;;;;;;4957232;28;20058;-89
2022/06/16 00:39:03;;;;;;;2.60;0.90;;;20.70;73.30;;;;;;4973519;28;20019;-88
2022/06/16 00:41:29;;;;;;;1.77;0.52;;;20.70;73.40;;;;;;4974647;28;20104;-89
2022/06/16 00:44:02;;;;;;;2.05;0.88;;;20.70;73.40;;;;;;4972850;28;20026;-89
2022/06/16 00:46:30;;;;;;;2.75;1.00;;;20.70;74.30;;;;;;4950523;29;20463;-88
2022/06/16 00:49:04;;;;;;;2.92;1.02;;;20.70;74.80;;;;;;4967659;28;20026;-89
2022/06/16 00:51:37;;;;;;;2.58;0.93;;;20.70;74.80;;;;;;4969117;28;20123;-88
2022/06/16 00:54:19;;;;;;;2.42;0.90;;;20.60;75.60;;;;;;4947527;28;20431;-89
2022/06/16 00:56:50;;;;;;;2.55;0.95;;;20.50;76.20;;;;;;4951213;28;20097;-89
2022/06/16 00:59:20;;;;;;;2.28;0.93;;;20.70;75.80;;;;;;4968832;28;20023;-89
2022/06/16 01:01:46;;;;;;;1.58;0.80;;;20.40;75.50;;;;;;4956019;28;20015;-89
2022/06/16 01:07:00;;;;;;;1.58;0.82;;;20.20;75.70;;;;;;4967514;28;20059;-88
2022/06/16 01:09:29;;;;;;;1.83;0.90;;;20.20;76.10;;;;;;4958650;28;20027;-89
2022/06/16 01:15:06;;;;;;;2.42;0.80;;;20.20;78.70;;;;;;4970204;28;20756;-89
2022/06/16 01:17:47;;;;;;;1.75;0.75;;;20.10;79.20;;;;;;4956043;28;20027;-89
2022/06/16 01:20:15;;;;;;;1.40;0.80;;;20.10;78.70;;;;;;4945376;28;20023;-89
2022/06/16 01:23:15;;;;;;;1.33;0.77;;;20.00;79.20;;;;;;4955125;28;20026;-89
2022/06/16 01:26:13;;;;;;;2.03;0.82;;;19.90;80.20;;;;;;4972492;28;20031;-89
2022/06/16 01:29:24;;;;;;;3.25;1.10;;;19.90;80.40;;;;;;4947328;28;20074;-88
2022/06/16 01:32:31;;;;;;;;;;;19.80;77.00;;;;;;4959094;28;20058;-89
2022/06/16 01:35:28;;;;;;;2.38;0.90;;;19.70;77.00;;;;;;4972975;28;19917;-87
2022/06/16 01:38:11;;;;;;;2.75;1.20;;;19.70;77.10;;;;;;4966814;28;20032;-88
2022/06/16 01:41:12;;;;;;;2.50;1.17;;;19.70;77.30;;;;;;4967181;28;20038;-88
2022/06/16 01:43:50;;;;;;;2.60;1.20;;;19.60;77.30;;;;;;4973761;28;20031;-87
2022/06/16 01:46:26;;;;;;;1.70;0.75;;;19.60;77.70;;;;;;4955014;28;20034;-88
2022/06/16 01:49:00;;;;;;;3.53;1.15;;;19.60;77.80;;;;;;4968721;28;20066;-88
2022/06/16 01:51:32;;;;;;;2.95;1.00;;;19.60;78.00;;;;;;4957953;28;20027;-88
2022/06/16 01:54:08;;;;;;;2.55;0.88;;;19.50;78.20;;;;;;4957039;28;20026;-88
2022/06/16 01:56:45;;;;;;;2.10;0.90;;;19.50;78.10;;;;;;4974793;28;20026;-88
2022/06/16 01:59:34;;;;;;;2.80;1.02;;;19.50;78.60;;;;;;4960204;28;20157;-87
2022/06/16 02:02:05;;;;;;;2.42;0.90;;;19.40;78.80;;;;;;4966115;28;20019;-88
2022/06/16 02:04:44;;;;;;;2.97;1.00;;;19.40;78.90;;;;;;4963619;28;20126;-88
2022/06/16 02:07:18;;;;;;;2.88;1.10;;;19.30;79.10;;;;;;4948906;28;20026;-88
2022/06/16 02:09:49;;;;;;;1.55;0.75;;;19.30;79.60;;;;;;4955131;28;20031;-87
2022/06/16 02:15:24;;;;;;;3.72;1.05;;;19.20;80.40;;;;;;4967802;28;20607;-87
2022/06/16 02:17:49;;;;;;;2.30;1.10;;;19.20;80.90;;;;;;4972741;28;20077;-88
2022/06/16 02:20:15;;;;;;;3.30;1.00;;;19.10;81.30;;;;;;4955260;28;20023;-87
2022/06/16 02:22:41;;;;;;;2.67;1.20;;;19.10;81.30;;;;;;4971421;28;20038;-88
2022/06/16 02:25:07;;;;;;;2.03;1.05;;;19.10;81.80;;;;;;4971572;28;20034;-88
2022/06/16 02:27:33;;;;;;;2.72;1.17;;;19.00;81.70;;;;;;4968841;28;20034;-88
2022/06/16 02:29:58;;;;;;;2.50;0.95;;;19.10;81.30;;;;;;4971604;28;20026;-87
2022/06/16 02:32:44;;;;;;;3.65;0.90;;;19.30;92.60;;;;;;4972293;28;20499;-88
2022/06/16 02:35:28;;;;;;;2.50;1.10;;;19.40;92.30;;;;;;4943564;29;20034;-88
2022/06/16 02:38:03;;;;;;;2.60;1.10;;;19.00;92.50;;;;;;4958833;28;20027;-88
2022/06/16 02:40:50;;;;;;;2.42;1.00;;;18.90;91.40;;;;;;4951200;28;20026;-88
2022/06/16 02:43:34;;;;;;;2.10;1.05;;;18.90;91.70;;;;;;4949515;28;20022;-87
2022/06/16 02:46:24;;;;;;;2.42;1.00;;;19.30;91.60;;;;;;4949841;28;20504;-88
2022/06/16 02:49:00;;;;;;;1.55;0.85;;;18.80;92.40;;;;;;4965176;28;20360;-88
2022/06/16 02:51:40;;;;;;;2.47;1.08;;;18.80;96.20;;;;;;4963897;28;20103;-88
2022/06/16 02:54:22;;;;;;;2.55;1.10;;;18.70;97.80;;;;;;4970979;28;20014;-88
2022/06/16 02:57:08;;;;;;;2.13;1.00;;;18.60;96.60;;;;;;4956523;28;20038;-87
2022/06/16 02:59:47;;;;;;;2.30;1.00;;;18.60;99.00;;;;;;4954731;28;20392;-88
2022/06/16 03:02:19;;;;;;;2.03;1.05;;;18.60;99.90;;;;;;4958348;28;20073;-87
2022/06/16 03:04:54;;;;;;;2.85;1.17;;;18.40;99.90;;;;;;4956043;28;20559;-88
2022/06/16 03:07:20;;;;;;;2.10;1.10;;;18.50;99.90;;;;;;4958249;28;20403;-87
2022/06/16 03:09:46;;;;;;;2.03;1.15;;;;;;;;;;4976132;28;20384;-87
2022/06/16 03:12:13;;;;;;;3.33;1.50;;;18.90;87.50;;;;;;4954744;28;20506;-87
2022/06/16 03:14:39;;;;;;;3.70;1.38;;;18.30;88.50;;;;;;4975405;28;20101;-87
2022/06/16 03:17:06;;;;;;;3.72;1.35;;;18.30;89.00;;;;;;4974845;28;20118;-87
2022/06/16 03:19:32;;;;;;;3.63;1.35;;;18.30;89.40;;;;;;4958192;28;20019;-87
2022/06/16 03:21:57;;;;;;;2.88;1.35;;;18.20;90.00;;;;;;4973482;28;20042;-87
2022/06/16 03:24:24;;;;;;;3.80;1.80;;;18.20;90.10;;;;;;5062193;22;20052;-88
2022/06/16 03:26:57;;;;;;;3.88;1.42;;;18.20;90.60;;;;;;5042407;28;20035;-88
2022/06/16 03:29:29;;;;;;;3.95;1.60;;;18.20;90.60;;;;;;5023908;28;20139;-88
2022/06/16 03:31:55;;;;;;;;;;;18.20;90.90;;;;;;5034373;28;20027;-88
2022/06/16 03:34:32;;;;;;;4.20;1.58;;;18.20;90.90;;;;;;5029796;28;19908;-88
2022/06/16 03:36:58;;;;;;;4.28;1.58;;;18.20;91.10;;;;;;5036979;28;20029;-87
2022/06/16 03:39:24;;;;;;;3.70;1.83;;;18.10;91.40;;;;;;5036829;28;20025;-87
2022/06/16 03:41:57;;;;;;;4.80;1.52;;;18.10;91.80;;;;;;5035895;28;20061;-88
2022/06/16 03:44:23;;;;;;;2.85;1.42;;;18.10;92.10;;;;;;5054435;28;20095;-89
2022/06/16 03:46:57;;;;;;;3.33;1.35;;;18.10;92.20;;;;;;5035338;28;20075;-89
2022/06/16 03:49:28;;;;;;;3.88;1.60;;;18.20;92.20;;;;;;5031154;28;20080;-88
2022/06/16 03:51:56;;;;;;;5.00;1.60;;;18.20;92.30;;;;;;5036393;28;20432;-90
2022/06/16 03:54:33;;;;;;;3.60;1.88;;;18.20;92.40;;;;;;5035143;28;20033;-89
2022/06/16 03:57:01;;;;;;;3.25;1.40;;;18.30;92.50;;;;;;5034977;28;20439;-87
2022/06/16 03:59:37;;;;;;;4.00;1.85;;;18.30;92.60;;;;;;5035035;28;20094;-89
2022/06/16 04:02:13;;;;;;;2.60;1.33;;;18.30;92.90;;;;;;5027672;28;20021;-88
2022/06/16 04:04:39;;;;;;;2.65;1.30;;;18.20;92.90;;;;;;5036503;28;20370;-88
2022/06/16 04:07:15;;;;;;;2.25;1.23;;;18.20;92.80;;;;;;5034379;28;20017;-89
2022/06/16 04:09:43;;;;;;;5.38;1.85;;;18.20;92.90;;;;;;5060314;28;20653;-89
2022/06/16 04:12:14;;;;;;;2.90;1.30;;;18.20;93.20;;;;;;5046892;28;20017;-89
2022/06/16 04:15:00;;;;;;;;;;;18.20;93.40;;;;;;5036083;28;20041;-89
2022/06/16 04:17:29;;;;;;;3.28;1.33;;;18.10;93.60;;;;;;5050942;28;20364;-89
2022/06/16 04:20:13;;;;;;;3.10;1.70;;;18.20;93.90;;;;;;5032275;28;20030;-89
2022/06/16 04:22:42;;;;;;;4.40;1.65;;;18.30;94.00;;;;;;5035242;28;20025;-89
2022/06/16 04:25:14;;;;;;;3.15;1.40;;;18.40;94.10;;;;;;5036007;28;20178;-87
2022/06/16 04:27:41;;;;;;;4.75;1.50;;;18.60;94.20;;;;;;5055563;28;20017;-89
2022/06/16 04:30:17;;;;;;;3.10;1.50;;;18.60;94.20;;;;;;5036769;28;20561;-88
2022/06/16 04:32:43;;;;;;;5.22;1.38;;;18.70;94.20;;;;;;5035550;28;20432;-87
2022/06/16 04:35:14;;;;;;;4.88;1.50;;;18.80;94.30;;;;;;5039833;28;20021;-89
2022/06/16 04:37:42;;;;;;;2.50;1.30;;;18.90;94.20;;;;;;5039792;28;20027;-89
2022/06/16 04:40:11;;;;;;;2.10;0.98;;;18.90;93.20;;;;;;5055305;28;20036;-89
2022/06/16 04:42:40;;;;;;;3.33;1.08;;;19.00;91.20;;;;;;5053868;28;20393;-89
2022/06/16 04:45:10;;;;;;;3.22;1.30;;;19.10;92.30;;;;;;5038072;28;20013;-88
2022/06/16 04:47:39;;;;;;;2.42;1.00;;;19.10;93.50;;;;;;5036058;28;20021;-89
2022/06/16 04:50:06;;;;;;;3.30;1.30;;;19.10;93.30;;;;;;5051551;28;20036;-89
2022/06/16 04:52:32;;;;;;;2.08;1.15;;;19.10;93.10;;;;;;5035448;28;20017;-89
2022/06/16 04:55:01;;;;;;;3.13;1.20;;;19.10;92.80;;;;;;5034978;28;20473;-87
2022/06/16 04:57:35;;;;;;;3.35;1.30;;;19.20;92.70;;;;;;5034687;28;20025;-86
2022/06/16 05:00:02;;;;;;;3.00;1.20;;;19.10;92.10;;;;;;5053278;28;20074;-89
2022/06/16 05:02:36;;;;;;;3.67;1.20;;;19.20;91.50;;;;;;5039235;28;20513;-88
2022/06/16 05:05:02;;;;;;;2.67;1.38;;;19.20;91.80;;;;;;5035118;28;20019;-89
2022/06/16 05:07:28;;;;;;;2.28;0.95;;;19.20;92.20;;;;;;5033849;28;20029;-89
2022/06/16 05:09:57;;;;;;;2.45;1.00;;;19.30;92.00;;;;;;5030069;28;20489;-89
2022/06/16 05:12:34;;;;;;;2.28;1.30;;;19.30;89.10;;;;;;5020736;28;20034;-87
2022/06/16 05:15:09;;;;;;;1.80;0.90;;;19.40;90.40;;;;;;5045811;28;20025;-89
2022/06/16 05:17:46;;;;;;;1.83;0.80;;;19.50;90.50;;;;;;5048929;28;20463;-87
2022/06/16 05:20:20;;;;;;;2.28;1.00;;;19.70;90.70;;;;;;5031744;28;20477;-89
2022/06/16 05:22:49;;;;;;;1.67;0.80;;;19.80;90.10;;;;;;5033515;28;20516;-89
2022/06/16 05:25:27;;;;;;;1.98;0.80;;;20.00;90.40;;;;;;5036113;28;20029;-89
2022/06/16 05:28:22;;;;;;;1.90;1.00;;;20.10;91.30;;;;;;5032438;28;21043;-89
2022/06/16 05:30:53;;;;;;;2.38;1.10;;;20.20;91.80;;;;;;5053348;28;20033;-89
2022/06/16 05:33:29;;;;;;;2.15;0.95;;;20.40;86.10;;;;;;5052204;28;20032;-88
2022/06/16 05:36:11;;;;;;;4.38;1.05;;;20.50;85.40;;;;;;5034159;28;20492;-88
2022/06/16 05:38:48;;;;;;;2.40;0.85;;;20.70;84.20;;;;;;5034502;28;20024;-89
2022/06/16 05:41:23;;;;;;;1.95;0.90;;;20.90;84.20;;;;;;5035031;28;20025;-89
2022/06/16 05:44:08;;;;;;;2.30;1.10;;;21.10;86.50;;;;;;5053299;28;20028;-89
2022/06/16 05:46:42;;;;;;;1.92;0.98;;;21.10;90.80;;;;;;5032373;28;20032;-87
2022/06/16 05:49:15;;;;;;;4.55;1.55;;;21.00;90.00;;;;;;5054225;28;20032;-88
2022/06/16 05:51:44;;;;;;;1.80;0.90;;;20.90;90.00;;;;;;5068893;28;20029;-88
2022/06/16 05:54:19;;;;;;;4.28;1.30;;;21.00;90.10;;;;;;5044338;28;20073;-88
2022/06/16 05:56:54;;;;;;;2.47;1.00;;;21.00;90.60;;;;;;5050289;28;20035;-89
2022/06/16 05:59:32;;;;;;;2.20;0.90;;;21.00;91.00;;;;;;5034217;28;20517;-89
2022/06/16 06:01:58;;;;;;;3.00;0.90;;;21.10;88.90;;;;;;5033188;28;20025;-89
2022/06/16 06:04:33;;;;;;;2.33;1.10;;;21.20;87.00;;;;;;5034146;28;20482;-89
2022/06/16 06:06:59;;;;;;;2.03;0.98;;;21.30;85.00;;;;;;5032274;28;20089;-89
2022/06/16 06:18:19;;;;;;;3.55;1.10;;;21.60;90.20;;;;;;5043261;28;20091;-89
2022/06/16 06:20:53;;;;;;;2.28;1.00;;;21.50;90.30;;;;;;5031913;28;20021;-89
2022/06/16 06:23:34;;;;;;;2.95;1.10;;;21.60;90.40;;;;;;5048962;28;20010;-89
2022/06/16 06:26:05;;;;;;;1.67;0.77;;;21.60;86.70;;;;;;5028797;28;20043;-89
2022/06/16 06:28:31;;;;;;;;;;;21.80;85.90;;;;;;5037500;28;20039;-90
2022/06/16 06:31:04;;;;;;;3.53;1.00;;;22.10;87.20;;;;;;5040050;28;20364;-89
2022/06/16 06:33:30;;;;;;;2.63;0.90;;;22.30;87.80;;;;;;5040388;28;20028;-89
2022/06/16 06:36:03;;;;;;;2.45;0.98;;;22.40;88.40;;;;;;5037716;28;20075;-89
2022/06/16 06:38:34;;;;;;;2.30;0.90;;;22.40;87.10;;;;;;5038159;28;20049;-89
2022/06/16 06:40:59;;;;;;;1.52;0.85;;;22.30;85.90;;;;;;5034793;28;20406;-89
2022/06/16 06:43:46;;;;;;;1.90;0.82;;;22.40;86.30;;;;;;5040010;28;20013;-89
2022/06/16 06:46:12;;;;;;;2.17;1.00;;;22.50;84.70;;;;;;5036373;28;20030;-90
2022/06/16 06:48:49;;;;;;;1.50;0.70;;;22.60;84.50;;;;;;5037448;28;20032;-89
2022/06/16 06:51:56;;;;;;;2.15;0.82;;;22.80;84.30;;;;;;5040220;28;20040;-89
2022/06/16 06:54:31;;;;;;;3.03;1.27;;;23.20;82.10;;;;;;5040203;28;20100;-89
2022/06/16 06:57:02;;;;;;;2.10;0.88;;;23.40;85.80;;;;;;5036842;28;20173;-90
2022/06/16 06:59:35;;;;;;;1.60;0.90;;;23.60;84.40;;;;;;5038680;28;20031;-88
2022/06/16 07:02:26;;;;;;;2.47;0.88;;;23.90;83.60;;;;;;5058656;28;20025;-89
2022/06/16 07:04:52;;;;;;;1.98;0.95;;;24.20;82.40;;;;;;5037684;28;20029;-89
2022/06/16 07:07:24;;;;;;;3.05;0.85;;;24.30;81.10;;;;;;5032875;28;20022;-90
2022/06/16 07:09:50;;;;;;;1.83;0.80;;;24.50;80.80;;;;;;5051277;28;20080;-90
2022/06/16 07:12:17;;;;;;;2.30;0.90;;;24.60;79.80;;;;;;5030636;28;20514;-90
2022/06/16 07:17:54;;;;;;;1.90;0.73;;;24.20;83.40;;;;;;5043306;28;20089;-89
2022/06/16 07:20:23;;;;;;;;;;;24.20;84.10;;;;;;5034029;28;20025;-90
2022/06/16 07:23:00;;;;;;;2.08;0.88;;;24.20;84.50;;;;;;5056145;28;20340;-89
2022/06/16 07:25:36;;;;;;;2.38;1.00;;;24.20;87.00;;;;;;5030491;28;20517;-89
2022/06/16 07:28:41;;;;;;;2.13;1.10;;;24.40;87.10;;;;;;5033373;28;20412;-91
2022/06/16 07:31:43;;;;;;;2.30;1.05;;;24.40;88.00;;;;;;5037424;28;20381;-90
2022/06/16 07:34:09;;;;;;;3.08;1.10;;;24.50;88.80;;;;;;5031427;28;20119;-89
2022/06/16 07:36:40;;;;;;;2.13;0.90;;;24.80;86.80;;;;;;5032982;28;20607;-90
2022/06/16 07:39:06;;;;;;;2.13;1.10;;;25.00;86.70;;;;;;5037634;28;20040;-90
2022/06/16 07:41:31;;;;;;;1.92;1.08;;;25.30;82.90;;;;;;5052806;28;20081;-89
2022/06/16 07:43:58;;;;;;;1.92;0.98;;;25.60;80.80;;;;;;5035208;28;20029;-88
2022/06/16 07:46:51;;;;;;;1.98;1.00;;;25.80;81.20;;;;;;5037634;28;20040;-89
2022/06/16 07:49:22;;;;;;;2.65;1.05;;;25.90;84.40;;;;;;5038460;28;20028;-90
2022/06/16 07:51:52;;;;;;;2.55;1.15;;;26.00;84.50;;;;;;5033734;28;20053;-89
2022/06/16 07:54:31;;;;;;;;;;;;;;;;;;;;;
2022/06/16 07:57:01;;;;;;;1.63;1.00;;;25.90;85.10;;;;;;5049473;28;20031;-88
2022/06/16 08:00:07;;;;;;;2.50;1.23;;;25.80;82.10;;;;;;5030912;28;20083;-90
2022/06/16 08:03:29;;;;;;;;;;;;;;;;;;;;;
2022/06/16 08:06:01;;;;;;;3.72;1.17;;;26.20;82.10;;;;;;5048529;28;20020;-90
2022/06/16 08:08:35;;;;;;;3.10;1.02;;;26.20;76.90;;;;;;5027498;28;20029;-91
2022/06/16 08:14:52;;;;;;;3.13;1.10;;;26.50;75.90;;;;;;5049990;28;20032;-91
2022/06/16 08:17:36;;;;;;;2.83;1.25;;;26.60;74.90;;;;;;5049734;28;20120;-90
2022/06/16 08:20:13;;;;;;;2.95;1.05;;;26.80;75.00;;;;;;5049420;28;20503;-92
2022/06/16 08:23:09;;;;;;;2.00;0.82;;;26.80;75.30;;;;;;5049701;28;20047;-90
2022/06/16 08:25:35;;;;;;;2.22;1.00;;;26.90;74.60;;;;;;5028041;28;20397;-90
2022/06/16 08:28:44;;;;;;;3.03;1.25;;;26.90;75.60;;;;;;5044449;28;20032;-91
2022/06/16 08:31:25;;;;;;;2.33;1.10;;;26.90;76.20;;;;;;5048301;28;20017;-91
2022/06/16 08:34:08;;;;;;;1.85;0.90;;;27.00;75.30;;;;;;5027520;28;20397;-89
2022/06/16 08:37:16;;;;;;;2.15;1.10;;;27.00;76.10;;;;;;5052720;28;20108;-90
2022/06/16 08:39:59;;;;;;;3.92;1.65;;;27.30;75.70;;;;;;5037503;28;20037;-90
2022/06/16 08:43:19;;;;;;;;;;;;;;;;;;;;;
2022/06/16 08:46:44;;;;;;;2.00;1.20;;;27.50;76.10;;;;;;5059788;28;20158;-90
2022/06/16 08:49:45;;;;;;;2.38;1.10;;;27.60;73.80;;;;;;5024916;28;20040;-90
2022/06/16 08:52:35;;;;;;;4.78;1.17;;;27.90;75.00;;;;;;4971259;28;20042;-90
2022/06/16 08:55:26;;;;;;;2.38;1.02;;;28.10;75.20;;;;;;5027987;28;20173;-90
2022/06/16 08:58:48;;;;;;;2.60;0.98;;;28.40;74.80;;;;;;5034309;28;20077;-90
2022/06/16 09:02:06;;;;;;;3.15;0.95;;;28.20;72.90;;;;;;5036748;28;20107;-91
2022/06/16 09:05:32;;;;;;;1.90;0.88;;;27.70;71.70;;;;;;5034109;28;20490;-91
2022/06/16 09:08:53;;;;;;;1.98;0.77;;;27.30;73.80;;;;;;4973246;28;20139;-91
2022/06/16 09:12:03;;;;;;;2.63;0.88;;;27.30;71.80;;;;;;4961019;28;20034;-92
2022/06/16 09:15:23;;;;;;;2.03;1.02;;;27.10;72.00;;;;;;5036864;28;20054;-91
2022/06/16 09:22:05;;;;;;;;;;;;;;;;;;;;;
2022/06/16 09:24:53;;;;;;;2.33;0.85;;;27.10;70.80;;;;;;5006331;22;20060;-91
2022/06/16 09:30:48;;;;;;;2.78;0.70;;;27.40;69.50;;;;;;4993632;28;20038;-90
2022/06/16 09:33:21;;;;;;;2.28;1.05;;;27.60;69.20;;;;;;4975540;28;20398;-90
2022/06/16 09:36:15;;;;;;;2.28;0.90;;;27.80;69.60;;;;;;4976585;28;20375;-91
2022/06/16 09:38:48;;;;;;;1.20;0.70;;;28.10;68.80;;;;;;4965895;28;20022;-90
2022/06/16 09:44:47;;;;;;;2.53;0.90;;;28.30;67.50;;;;;;4986790;28;20398;-90
2022/06/16 09:47:21;;;;;;;4.88;0.80;;;28.60;67.30;;;;;;4974710;28;20026;-91
2022/06/16 09:50:04;;;;;;;1.77;1.00;;;28.90;67.70;;;;;;4976068;28;20089;-91
2022/06/16 09:52:35;;;;;;;1.77;1.10;;;28.90;69.00;;;;;;4970346;28;20030;-90
2022/06/16 09:55:25;;;;;;;1.40;0.80;;;28.80;66.70;;;;;;4974933;28;20022;-91
2022/06/16 09:58:00;;;;;;;2.58;1.00;;;28.90;67.50;;;;;;4939118;28;20081;-91
2022/06/16 10:00:33;;;;;;;2.17;1.00;;;29.10;68.20;;;;;;4976174;28;20065;-91
2022/06/16 10:03:09;;;;;;;2.20;1.05;;;29.40;68.70;;;;;;4975028;28;20100;-91
2022/06/16 10:06:06;;;;;;;4.70;1.60;;;29.40;69.20;;;;;;4973547;28;20039;-91
2022/06/16 10:09:08;;;;;;;1.52;0.93;;;29.50;69.30;;;;;;4974016;28;20058;-91
2022/06/16 10:11:54;;;;;;;1.77;0.88;;;29.30;68.20;;;;;;4952333;28;20100;-91
2022/06/16 10:14:22;;;;;;;4.05;1.20;;;29.10;68.10;;;;;;4995615;28;20099;-91
2022/06/16 10:16:59;;;;;;;3.90;1.00;;;29.10;69.00;;;;;;4979380;28;20021;-90
2022/06/16 10:19:49;;;;;;;1.65;0.80;;;29.10;67.80;;;;;;4972390;28;20079;-92
2022/06/16 10:25:37;;;;;;;1.80;0.90;;;28.70;68.70;;;;;;5076609;22;20060;-91
2022/06/16 10:32:30;;;;;;;1.77;0.80;;;28.70;69.30;;;;;;5028357;28;20035;-91
2022/06/16 10:35:55;;;;;;;;;;;;;;;;;;;;;
2022/06/16 10:51:03;;;;;;;3.00;1.25;;;29.60;68.20;;;;;;5035314;23;20552;-90
2022/06/16 13:12:22;;;;;;;1.92;0.95;;;31.90;56.60;;;;;;4943675;29;20058;-90
2022/06/16 13:15:06;;;;;;;3.33;0.77;;;32.10;56.40;;;;;;4988406;23;20046;-90
2022/06/16 13:18:22;;;;;;;1.90;0.70;;;32.00;56.40;;;;;;4989536;28;20038;-90
2022/06/16 13:29:07;;;;;;;1.90;0.70;;;32.30;54.10;;;;;;4869123;29;20032;-89
2022/06/16 13:32:26;;;;;;;2.53;0.80;;;32.50;55.60;;;;;;4830701;29;20030;-90
2022/06/16 13:45:49;;;;;;;2.85;0.80;;;32.60;55.40;;;;;;5025268;22;20461;-90
2022/06/16 13:52:14;;;;;;;0.98;0.60;;;33.20;53.10;;;;;;4929720;29;20963;-90
2022/06/16 14:37:25;;;;;;;2.42;0.85;;;32.90;56.60;;;;;;4736714;30;20398;-88
2022/06/16 15:01:03;;;;;;;2.25;0.90;;;32.50;56.70;;;;;;4932660;29;20036;-88
2022/06/16 15:24:12;;;;;;;2.88;1.27;;;34.20;54.70;;;;;;3080058;22;20049;-87
2022/06/16 15:26:39;;;;;;;2.58;0.98;;;34.60;53.30;;;;;;5014485;28;20032;-86
2022/06/16 15:29:13;;;;;;;5.13;0.95;;;34.50;52.40;;;;;;5039275;28;20032;-86
2022/06/16 15:31:54;;;;;;;1.13;0.60;;;34.50;54.10;;;;;;5022212;28;20029;-86
2022/06/16 15:37:06;;;;;;;2.17;0.95;;;34.50;53.10;;;;;;5035781;28;20092;-86
2022/06/16 15:39:44;;;;;;;3.05;0.77;;;34.60;53.40;;;;;;5034401;28;20028;-88
2022/06/16 15:42:31;;;;;;;1.92;0.90;;;34.30;53.70;;;;;;5013704;28;20038;-89
2022/06/16 15:45:03;;;;;;;2.03;1.17;;;33.70;54.80;;;;;;5015343;28;20025;-87
2022/06/16 15:47:56;;;;;;;2.70;1.02;;;33.70;54.80;;;;;;5017840;28;20029;-89
2022/06/16 15:50:26;;;;;;;1.63;0.95;;;33.80;54.80;;;;;;5025850;28;20033;-88
2022/06/16 15:53:16;;;;;;;2.35;1.10;;;33.80;53.90;;;;;;5006053;28;20487;-88
2022/06/16 15:56:21;;;;;;;2.42;1.08;;;33.90;53.30;;;;;;5018698;28;20044;-88
2022/06/16 15:59:12;;;;;;;2.50;1.30;;;34.00;53.20;;;;;;5034438;28;20486;-90
2022/06/16 16:02:03;;;;;;;2.20;1.00;;;33.80;53.30;;;;;;5024874;28;20032;-89
2022/06/16 16:04:32;;;;;;;3.08;0.95;;;33.60;53.80;;;;;;5021110;28;20671;-88
2022/06/16 16:07:29;;;;;;;1.20;0.80;;;33.50;54.00;;;;;;5027110;28;20057;-89
2022/06/16 16:10:12;;;;;;;1.60;0.70;;;33.30;53.70;;;;;;5014301;28;20052;-88
2022/06/16 16:12:38;;;;;;;2.08;0.85;;;32.80;53.90;;;;;;5010938;28;20072;-88
2022/06/16 16:15:19;;;;;;;1.92;0.85;;;32.40;54.30;;;;;;5025506;28;20648;-88
2022/06/16 16:17:52;;;;;;;1.70;0.90;;;32.20;55.20;;;;;;5029677;28;20041;-89
2022/06/16 16:20:39;;;;;;;1.35;0.63;;;32.10;54.50;;;;;;5036989;28;20021;-88
2022/06/16 16:23:51;;;;;;;2.88;0.80;;;32.10;55.20;;;;;;5000979;28;20151;-89
2022/06/16 16:26:21;;;;;;;1.92;1.00;;;31.70;55.50;;;;;;4952521;28;20073;-87
2022/06/16 16:28:59;;;;;;;1.30;0.80;;;31.60;55.60;;;;;;5031623;28;20124;-88
2022/06/16 16:31:30;;;;;;;2.63;0.90;;;31.20;55.70;;;;;;5016491;28;20029;-88
2022/06/16 16:37:33;;;;;;;1.80;0.90;;;30.50;55.80;;;;;;5023476;28;20095;-88
2022/06/16 16:43:00;;;;;;;1.67;0.63;;;29.80;56.90;;;;;;5007017;28;20026;-88
2022/06/16 16:43:42;;;;;;;2.05;0.90;;;29.40;56.60;;;;;;5032659;28;20071;-88
2022/06/16 16:46:20;;;;;;;1.58;0.65;;;29.00;57.00;;;;;;5010164;28;20037;-87
2022/06/16 16:48:56;;;;;;;2.13;0.90;;;28.80;56.80;;;;;;5022839;28;20026;-90
2022/06/16 16:51:47;;;;;;;1.58;0.90;;;28.60;57.10;;;;;;5021627;28;20026;-88
2022/06/16 16:55:04;;;;;;;2.35;1.00;;;28.50;57.70;;;;;;4992190;28;20108;-88
2022/06/16 16:57:55;;;;;;;2.20;0.90;;;28.40;57.90;;;;;;4975813;28;20026;-87
2022/06/16 17:00:38;;;;;;;1.50;0.70;;;28.50;58.20;;;;;;5012289;28;20036;-87
2022/06/16 17:03:09;;;;;;;1.38;0.55;;;28.50;58.00;;;;;;5028480;28;20024;-87
2022/06/16 17:05:53;;;;;;;1.70;0.80;;;28.40;57.20;;;;;;5018559;28;20087;-88
2022/06/16 17:08:19;;;;;;;2.38;0.80;;;28.30;56.60;;;;;;5021641;28;20056;-88
2022/06/16 17:16:37;;;;;;;1.27;0.70;;;28.20;56.80;;;;;;5053684;28;20040;-88
2022/06/16 17:19:06;;;;;;;1.20;0.60;;;28.10;56.60;;;;;;5031214;28;20043;-89
2022/06/16 17:21:43;;;;;;;0.95;0.63;;;28.20;56.70;;;;;;5040610;28;20040;-88
2022/06/16 17:24:27;;;;;;;1.77;0.63;;;28.00;55.80;;;;;;5036208;28;20038;-87
2022/06/16 17:27:12;;;;;;;1.38;0.50;;;27.90;55.50;;;;;;5038543;28;20017;-87
2022/06/16 17:29:46;;;;;;;0.80;0.40;;;27.80;55.30;;;;;;5027391;28;20029;-88
2022/06/16 17:32:43;;;;;;;1.63;0.70;;;27.80;55.40;;;;;;5030788;28;20081;-88
2022/06/16 17:35:44;;;;;;;1.23;0.55;;;27.70;55.20;;;;;;5021991;28;20059;-89
2022/06/16 17:41:32;;;;;;;1.33;0.50;;;27.60;54.60;;;;;;5034935;28;20025;-89
2022/06/16 17:44:10;;;;;;;1.30;0.60;;;27.60;55.30;;;;;;5028976;28;20070;-88
2022/06/16 18:02:20;;;;;;;2.80;0.30;;;27.30;51.80;;;;;;5045010;28;20052;-90
2022/06/16 18:04:47;;;;;;;1.13;0.60;;;27.30;52.80;;;;;;5034414;28;20025;-88
2022/06/16 18:07:14;;;;;;;1.15;0.32;;;27.20;52.70;;;;;;5046221;28;20013;-88
2022/06/16 18:09:43;;;;;;;1.10;0.40;;;27.10;52.80;;;;;;5031679;28;20032;-86
2022/06/16 18:12:25;;;;;;;1.45;0.45;;;26.90;51.90;;;;;;5006513;28;20018;-88
2022/06/16 18:14:54;;;;;;;2.25;0.43;;;26.80;52.50;;;;;;5014555;28;20498;-88
2022/06/16 18:17:20;;;;;;;2.03;0.57;;;26.80;53.30;;;;;;5011705;28;20051;-88
2022/06/16 18:19:46;;;;;;;0.85;0.40;;;26.70;51.80;;;;;;5013981;28;20025;-88
2022/06/16 18:22:14;;;;;;;1.50;0.52;;;26.70;52.70;;;;;;5012637;28;20029;-88
2022/06/16 18:24:55;;;;;;;0.90;0.40;;;26.50;51.70;;;;;;5014020;28;20022;-88
2022/06/16 18:27:28;;;;;;;;;;;26.40;52.00;;;;;;5010647;28;20037;-89
2022/06/16 18:29:56;;;;;;;1.05;0.40;;;26.20;51.80;;;;;;5016321;28;19905;-88
2022/06/16 18:32:23;;;;;;;0.60;0.40;;;26.20;52.40;;;;;;5014290;28;20026;-88
2022/06/16 18:34:48;;;;;;;0.70;0.50;;;26.10;52.20;;;;;;5018091;28;20158;-88
2022/06/16 18:37:15;;;;;;;1.25;0.50;;;26.00;52.50;;;;;;5008982;28;20491;-88
2022/06/16 18:39:41;;;;;;;2.97;0.55;;;26.00;52.50;;;;;;5006625;28;20018;-88
2022/06/16 18:42:11;;;;;;;1.08;0.43;;;25.90;52.20;;;;;;5011062;28;20021;-88
2022/06/16 18:45:18;;;;;;;0.57;0.30;;;25.80;51.80;;;;;;5022790;28;20528;-89
2022/06/16 18:47:49;;;;;;;0.90;0.50;;;25.80;52.10;;;;;;4983955;28;20165;-87
2022/06/16 18:50:17;;;;;;;0.50;0.30;;;25.60;52.40;;;;;;5013527;28;20378;-88
2022/06/16 18:52:43;;;;;;;0.93;0.50;;;25.50;52.20;;;;;;5030631;28;20143;-87
2022/06/16 18:55:09;;;;;;;1.40;0.40;;;25.50;52.40;;;;;;5032762;28;20025;-87
2022/06/16 18:57:37;;;;;;;0.77;0.40;;;25.40;52.70;;;;;;5011055;28;20048;-88
2022/06/16 19:00:22;;;;;;;1.10;0.68;;;25.30;52.40;;;;;;5029929;28;20111;-87
2022/06/16 19:02:52;;;;;;;0.95;0.40;;;25.30;52.80;;;;;;5017097;28;20502;-86
2022/06/16 19:05:25;;;;;;;1.25;0.35;;;25.30;53.10;;;;;;5015455;28;20509;-88
2022/06/16 19:07:51;;;;;;;1.00;0.40;;;25.20;53.30;;;;;;5009312;28;20038;-87
2022/06/16 19:10:27;;;;;;;0.43;0.32;;;25.10;53.40;;;;;;5022041;28;20077;-87
2022/06/16 19:12:55;;;;;;;0.77;0.40;;;25.10;54.00;;;;;;5007184;28;20022;-87
2022/06/16 19:15:24;;;;;;;1.90;0.60;;;25.00;54.40;;;;;;5028742;28;20083;-88
2022/06/16 19:17:57;;;;;;;3.40;0.77;;;25.00;54.70;;;;;;5012521;28;20025;-87
2022/06/16 19:20:35;;;;;;;1.48;0.60;;;25.00;55.10;;;;;;5014044;28;20026;-88
2022/06/16 19:23:05;;;;;;;1.02;0.50;;;24.90;55.50;;;;;;5013932;28;20120;-87